Time;durP1;ratioP1;P1;durP2;ratioP2;P2;SDS_P1;SDS_P2;PMS_P1;PMS_P2;Temp;Humidity;BMP_temperature;BMP_pressure;BME280_temperature;BME280_humidity;BME280_pressure;Samples;Min_cycle;Max_cycle;Signal;HPM_P1;HPM_P2
2023/08/24 00:04:12;;;;;;;6.55;4.65;;;;;;;;;;10495865;28;20050;-85
2023/08/24 00:09:15;;;;;;;13.80;5.13;;;;;;;;;;10526195;28;20047;-84
2023/08/24 00:14:16;;;;;;;19.35;7.03;;;;;;;;;;10528346;28;20069;-84
2023/08/24 00:19:17;;;;;;;16.17;6.35;;;;;;;;;;10495815;28;20036;-83
2023/08/24 00:24:18;;;;;;;20.08;7.65;;;;;;;;;;10516940;28;20099;-83
2023/08/24 00:29:21;;;;;;;47.85;18.00;;;;;;;;;;10339467;28;20053;-83
2023/08/24 00:34:22;;;;;;;40.83;17.42;;;;;;;;;;10302463;28;20027;-83
2023/08/24 00:39:23;;;;;;;69.60;29.80;;;;;;;;;;10300195;28;20361;-85
2023/08/24 00:44:24;;;;;;;14.55;7.55;;;;;;;;;;10299054;28;20031;-86
2023/08/24 00:49:26;;;;;;;21.20;8.70;;;;;;;;;;10302689;28;20038;-85
2023/08/24 00:54:27;;;;;;;22.80;8.52;;;;;;;;;;10302324;28;20069;-86
2023/08/24 00:59:28;;;;;;;16.02;6.93;;;;;;;;;;10302832;28;20019;-85
2023/08/24 01:04:29;;;;;;;14.93;6.50;;;;;;;;;;10294959;28;20489;-85
2023/08/24 01:09:30;;;;;;;13.27;5.20;;;;;;;;;;10290071;28;20030;-86
2023/08/24 01:14:51;;;;;;;11.27;5.53;;;;;;;;;;10310911;28;20504;-86
2023/08/24 01:19:52;;;;;;;12.30;5.72;;;;;;;;;;10313210;28;20383;-87
2023/08/24 01:25:00;;;;;;;12.45;5.10;;;;;;;;;;10297467;28;20035;-82
2023/08/24 01:30:02;;;;;;;9.10;4.88;;;;;;;;;;10513179;28;20056;-87
2023/08/24 01:35:05;;;;;;;9.52;4.57;;;;;;;;;;10518975;28;20035;-85
2023/08/24 01:40:14;;;;;;;10.30;4.93;;;;;;;;;;10517079;28;20040;-85
2023/08/24 01:45:17;;;;;;;7.50;4.10;;;;;;;;;;10487025;28;20372;-87
2023/08/24 01:50:18;;;;;;;7.35;4.38;;;;;;;;;;10512969;28;20415;-86
2023/08/24 01:55:19;;;;;;;7.97;4.60;;;;;;;;;;10502466;28;20064;-88
2023/08/24 02:00:21;;;;;;;9.52;5.43;;;;;;;;;;10502023;28;20093;-87
2023/08/24 02:05:24;;;;;;;10.02;4.50;;;;;;;;;;10521207;28;20415;-88
2023/08/24 02:10:25;;;;;;;10.27;5.10;;;;;;;;;;10493457;28;20165;-87
2023/08/24 02:15:26;;;;;;;9.05;5.00;;;;;;;;;;10510964;28;20035;-87
2023/08/24 02:20:28;;;;;;;8.68;4.55;;;;;;;;;;10508270;28;20047;-87
2023/08/24 02:25:29;;;;;;;10.40;4.72;;;;;;;;;;10507434;28;20079;-88
2023/08/24 02:30:30;;;;;;;8.63;4.65;;;;;;;;;;10515204;28;20036;-87
2023/08/24 02:35:31;;;;;;;8.25;4.63;;;;;;;;;;10527687;28;20372;-86
2023/08/24 02:40:32;;;;;;;9.30;5.03;;;;;;;;;;10499176;28;20047;-86
2023/08/24 02:45:33;;;;;;;8.75;4.68;;;;;;;;;;10515338;28;20035;-88
2023/08/24 02:50:34;;;;;;;9.93;5.60;;;;;;;;;;10510151;28;20029;-85
2023/08/24 02:55:35;;;;;;;9.35;5.20;;;;;;;;;;10494073;28;20033;-88
2023/08/24 03:00:39;;;;;;;8.93;5.15;;;;;;;;;;10514201;28;20032;-87
2023/08/24 03:05:40;;;;;;;8.93;4.82;;;;;;;;;;10491897;28;20445;-86
2023/08/24 03:10:41;;;;;;;7.45;4.70;;;;;;;;;;10495589;28;20682;-87
2023/08/24 03:15:42;;;;;;;6.97;5.13;;;;;;;;;;10522490;28;20036;-86
2023/08/24 03:20:44;;;;;;;9.50;5.20;;;;;;;;;;10502359;28;20032;-86
2023/08/24 03:25:45;;;;;;;8.27;5.07;;;;;;;;;;10496798;28;20389;-86
2023/08/24 03:30:47;;;;;;;8.85;5.68;;;;;;;;;;10518413;28;20125;-86
2023/08/24 03:35:49;;;;;;;9.85;5.18;;;;;;;;;;10516138;28;20047;-85
2023/08/24 03:40:50;;;;;;;9.10;5.57;;;;;;;;;;10492543;28;20582;-87
2023/08/24 03:45:51;;;;;;;13.32;5.78;;;;;;;;;;10499287;28;20035;-88
2023/08/24 03:50:55;;;;;;;8.80;5.43;;;;;;;;;;10508999;28;20552;-88
2023/08/24 03:55:56;;;;;;;8.35;5.60;;;;;;;;;;10509516;28;20081;-86
2023/08/24 04:00:57;;;;;;;9.30;5.60;;;;;;;;;;10526463;28;20564;-86
2023/08/24 04:05:58;;;;;;;11.85;6.13;;;;;;;;;;10510047;28;20040;-86
2023/08/24 04:10:59;;;;;;;12.10;6.35;;;;;;;;;;10508553;28;20093;-87
2023/08/24 04:16:00;;;;;;;12.15;6.55;;;;;;;;;;10521600;28;20464;-88
2023/08/24 04:21:01;;;;;;;9.52;6.57;;;;;;;;;;10520294;28;20032;-85
2023/08/24 04:26:04;;;;;;;13.30;7.32;;;;;;;;;;10491063;28;20135;-88
2023/08/24 04:31:06;;;;;;;8.32;6.30;;;;;;;;;;10477365;28;20436;-86
2023/08/24 04:36:07;;;;;;;10.00;6.28;;;;;;;;;;10508794;28;20035;-86
2023/08/24 04:41:09;;;;;;;12.20;7.10;;;;;;;;;;10504105;28;20048;-85
2023/08/24 04:46:10;;;;;;;12.68;6.65;;;;;;;;;;10481524;28;20412;-85
2023/08/24 04:51:11;;;;;;;10.88;7.03;;;;;;;;;;10487452;28;20036;-87
2023/08/24 04:56:12;;;;;;;10.88;6.60;;;;;;;;;;10475978;28;20020;-88
2023/08/24 05:01:14;;;;;;;8.00;6.10;;;;;;;;;;10494410;28;20123;-89
2023/08/24 05:06:15;;;;;;;11.90;7.78;;;;;;;;;;10505989;28;20032;-88
2023/08/24 05:11:20;;;;;;;10.90;7.70;;;;;;;;;;10491072;28;20093;-87
2023/08/24 05:16:21;;;;;;;11.50;7.95;;;;;;;;;;10482631;28;20040;-90
2023/08/24 05:21:23;;;;;;;12.90;7.82;;;;;;;;;;10497537;28;20031;-87
2023/08/24 05:26:24;;;;;;;12.50;8.20;;;;;;;;;;10488942;28;20064;-86
2023/08/24 05:31:25;;;;;;;16.33;9.90;;;;;;;;;;10527231;28;20040;-88
2023/08/24 05:36:26;;;;;;;17.30;8.32;;;;;;;;;;10498001;28;20680;-85
2023/08/24 05:41:27;;;;;;;18.80;9.88;;;;;;;;;;10489292;28;20047;-89
2023/08/24 05:46:28;;;;;;;16.25;9.30;;;;;;;;;;10507938;28;20456;-86
2023/08/24 05:51:30;;;;;;;13.07;8.68;;;;;;;;;;10506671;28;20039;-88
2023/08/24 05:56:31;;;;;;;14.82;9.40;;;;;;;;;;10500623;28;20097;-86
2023/08/24 06:01:33;;;;;;;16.25;10.20;;;;;;;;;;10503761;28;20106;-87
2023/08/24 06:06:34;;;;;;;17.73;9.77;;;;;;;;;;10497035;28;20068;-90
2023/08/24 06:11:35;;;;;;;13.27;8.52;;;;;;;;;;10492593;28;20718;-89
2023/08/24 06:16:36;;;;;;;17.25;8.93;;;;;;;;;;10502746;28;20663;-88
2023/08/24 06:21:38;;;;;;;15.15;8.65;;;;;;;;;;10514433;28;20028;-87
2023/08/24 06:26:39;;;;;;;13.23;8.68;;;;;;;;;;10517246;28;20448;-88
2023/08/24 06:31:40;;;;;;;11.25;8.05;;;;;;;;;;10519783;28;20067;-87
2023/08/24 06:36:41;;;;;;;13.35;8.25;;;;;;;;;;10512607;28;20127;-87
2023/08/24 06:41:43;;;;;;;13.98;9.15;;;;;;;;;;10502269;28;20746;-89
2023/08/24 06:46:44;;;;;;;13.15;8.85;;;;;;;;;;10511440;28;20047;-88
2023/08/24 06:51:45;;;;;;;14.73;9.18;;;;;;;;;;10496638;28;20044;-87
2023/08/24 06:56:47;;;;;;;14.57;9.30;;;;;;;;;;10499627;28;20185;-88
2023/08/24 07:01:48;;;;;;;15.00;9.70;;;;;;;;;;10501148;28;20059;-93
2023/08/24 07:06:49;;;;;;;13.73;9.95;;;;;;;;;;10506461;28;20032;-89
2023/08/24 07:11:50;;;;;;;13.35;9.90;;;;;;;;;;10501076;28;20055;-89
2023/08/24 07:16:51;;;;;;;16.08;10.45;;;;;;;;;;10500776;28;20055;-90
2023/08/24 07:21:52;;;;;;;12.02;7.00;;;;;;;;;;10505555;28;20032;-88
2023/08/24 07:26:53;;;;;;;9.40;6.00;;;;;;;;;;10497902;28;20588;-89
2023/08/24 07:31:54;;;;;;;9.35;6.03;;;;;;;;;;10496246;28;20044;-90
2023/08/24 07:36:55;;;;;;;10.65;6.22;;;;;;;;;;10510157;28;20454;-89
2023/08/24 07:41:56;;;;;;;9.15;6.53;;;;;;;;;;10511429;28;20122;-93
2023/08/24 07:46:57;;;;;;;7.07;5.20;;;;;;;;;;10509346;28;20039;-88
2023/08/24 07:51:59;;;;;;;6.90;4.82;;;;;;;;;;10508043;28;20043;-89
2023/08/24 07:57:00;;;;;;;5.95;3.40;;;;;;;;;;10509869;28;20031;-88
2023/08/24 08:02:01;;;;;;;6.57;3.78;;;;;;;;;;10496437;28;20055;-89
2023/08/24 08:07:02;;;;;;;5.20;3.70;;;;;;;;;;10510788;28;20559;-90
2023/08/24 08:12:03;;;;;;;4.90;2.45;;;;;;;;;;10511029;28;20047;-90
2023/08/24 08:17:04;;;;;;;5.13;3.35;;;;;;;;;;10480445;28;20407;-92
2023/08/24 08:22:06;;;;;;;6.18;3.63;;;;;;;;;;10497469;28;20031;-88
2023/08/24 08:27:07;;;;;;;6.20;3.30;;;;;;;;;;10492509;28;20056;-89
2023/08/24 08:32:11;;;;;;;7.53;3.28;;;;;;;;;;10496979;28;20043;-89
2023/08/24 08:37:12;;;;;;;6.60;3.30;;;;;;;;;;10480092;28;20039;-86
2023/08/24 08:42:14;;;;;;;6.40;3.40;;;;;;;;;;10481408;28;20031;-89
2023/08/24 08:47:15;;;;;;;3.65;2.72;;;;;;;;;;10488281;28;20111;-92
2023/08/24 08:52:16;;;;;;;3.53;2.35;;;;;;;;;;10501286;28;20562;-86
2023/08/24 08:57:18;;;;;;;3.25;2.15;;;;;;;;;;10509162;28;20625;-89
2023/08/24 09:02:22;;;;;;;5.05;2.60;;;;;;;;;;10480368;28;20032;-89
2023/08/24 09:07:23;;;;;;;3.65;2.42;;;;;;;;;;10471092;28;20025;-88
2023/08/24 09:12:24;;;;;;;3.60;2.13;;;;;;;;;;10475980;28;20040;-89
2023/08/24 09:17:25;;;;;;;3.10;1.95;;;;;;;;;;10489343;28;20047;-89
2023/08/24 09:22:27;;;;;;;4.30;2.25;;;;;;;;;;10483059;28;20024;-86
2023/08/24 09:27:28;;;;;;;2.53;2.30;;;;;;;;;;10480571;28;20088;-88
2023/08/24 09:32:30;;;;;;;2.63;1.95;;;;;;;;;;10495400;28;20392;-89
2023/08/24 09:37:35;;;;;;;3.40;2.17;;;;;;;;;;10499299;28;20042;-86
2023/08/24 09:43:04;;;;;;;2.75;2.28;;;;;;;;;;10504148;28;20028;-88
2023/08/24 09:48:06;;;;;;;4.32;2.22;;;;;;;;;;10503615;28;20556;-88
2023/08/24 09:53:11;;;;;;;4.32;1.95;;;;;;;;;;10515413;28;20373;-88
2023/08/24 09:58:13;;;;;;;3.83;2.03;;;;;;;;;;10495730;28;20340;-92
2023/08/24 10:03:22;;;;;;;3.25;1.98;;;;;;;;;;10491020;28;20402;-89
2023/08/24 10:08:43;;;;;;;2.30;2.00;;;;;;;;;;10485911;28;20517;-87
2023/08/24 10:13:57;;;;;;;3.88;2.50;;;;;;;;;;10489452;28;21081;-88
2023/08/24 10:18:58;;;;;;;3.85;2.40;;;;;;;;;;10500544;28;20033;-87
2023/08/24 10:24:02;;;;;;;4.15;2.45;;;;;;;;;;10493653;28;20039;-91
2023/08/24 10:29:04;;;;;;;4.23;2.60;;;;;;;;;;10335319;28;20054;-91
2023/08/24 10:34:06;;;;;;;3.42;2.25;;;;;;;;;;10297242;28;20394;-89
2023/08/24 10:39:13;;;;;;;2.90;2.22;;;;;;;;;;10302575;28;20062;-88
2023/08/24 10:44:21;;;;;;;4.38;2.60;;;;;;;;;;10294732;28;20629;-89
2023/08/24 10:49:22;;;;;;;5.07;3.05;;;;;;;;;;10307983;28;20042;-86
2023/08/24 10:54:33;;;;;;;3.40;2.67;;;;;;;;;;10293515;28;20030;-88
2023/08/24 10:59:38;;;;;;;5.13;2.40;;;;;;;;;;10296680;28;20038;-89
2023/08/24 11:04:40;;;;;;;5.63;2.88;;;;;;;;;;10305173;28;20591;-87
2023/08/24 11:09:50;;;;;;;4.72;2.50;;;;;;;;;;10290027;28;20060;-91
2023/08/24 11:14:58;;;;;;;4.35;2.33;;;;;;;;;;10299212;28;20088;-88
2023/08/24 11:20:00;;;;;;;7.55;3.15;;;;;;;;;;10316778;28;20212;-89
2023/08/24 11:25:03;;;;;;;3.05;2.60;;;;;;;;;;10303244;28;20023;-86
2023/08/24 11:30:05;;;;;;;3.38;2.55;;;;;;;;;;10297559;28;20053;-88
2023/08/24 11:35:07;;;;;;;4.55;2.63;;;;;;;;;;10303401;28;20367;-91
2023/08/24 11:40:18;;;;;;;3.08;2.35;;;;;;;;;;10314340;28;20061;-87
2023/08/24 11:45:21;;;;;;;3.55;2.40;;;;;;;;;;10303969;28;20490;-89
2023/08/24 11:50:28;;;;;;;3.55;2.38;;;;;;;;;;10321383;28;20046;-89
2023/08/24 11:55:29;;;;;;;4.45;2.90;;;;;;;;;;10311946;28;20122;-89
2023/08/24 12:00:31;;;;;;;3.88;2.22;;;;;;;;;;10295619;28;20053;-90
2023/08/24 12:05:32;;;;;;;3.85;2.45;;;;;;;;;;10296770;28;20068;-88
2023/08/24 12:10:35;;;;;;;4.03;2.55;;;;;;;;;;10315977;28;20030;-89
2023/08/24 12:15:37;;;;;;;5.65;3.08;;;;;;;;;;10303814;28;20034;-91
2023/08/24 12:20:38;;;;;;;3.65;2.58;;;;;;;;;;10313025;28;20061;-88
2023/08/24 12:25:42;;;;;;;4.63;2.72;;;;;;;;;;10329587;28;20051;-90
2023/08/24 12:30:47;;;;;;;3.13;2.75;;;;;;;;;;10495500;28;20036;-88
2023/08/24 12:35:51;;;;;;;6.90;4.63;;;;;;;;;;10494527;28;20056;-91
2023/08/24 12:41:17;;;;;;;3.50;2.45;;;;;;;;;;10490951;28;20027;-91
2023/08/24 12:46:18;;;;;;;4.22;2.78;;;;;;;;;;10494645;28;20581;-89
2023/08/24 12:51:20;;;;;;;5.35;3.38;;;;;;;;;;10499377;28;20053;-91
2023/08/24 12:56:21;;;;;;;3.47;2.70;;;;;;;;;;10480971;28;20476;-90
2023/08/24 13:01:22;;;;;;;3.17;2.63;;;;;;;;;;10498380;28;20040;-89
2023/08/24 13:06:24;;;;;;;2.90;2.33;;;;;;;;;;10486741;28;20039;-90
2023/08/24 13:11:26;;;;;;;5.65;3.08;;;;;;;;;;10480823;28;20065;-89
2023/08/24 13:16:27;;;;;;;4.57;3.00;;;;;;;;;;10488229;28;20028;-89
2023/08/24 13:21:35;;;;;;;5.60;3.30;;;;;;;;;;10494045;28;20037;-90
2023/08/24 13:26:36;;;;;;;4.85;3.00;;;;;;;;;;10497210;28;20044;-90
2023/08/24 13:31:59;;;;;;;5.75;2.72;;;;;;;;;;10498092;28;20487;-90
2023/08/24 13:37:00;;;;;;;3.78;2.88;;;;;;;;;;10501184;28;20055;-88
2023/08/24 13:42:02;;;;;;;7.43;3.50;;;;;;;;;;10496345;28;20055;-90
2023/08/24 13:47:10;;;;;;;4.75;2.97;;;;;;;;;;10509296;28;20032;-89
2023/08/24 13:52:12;;;;;;;4.35;2.88;;;;;;;;;;10498970;28;20189;-90
2023/08/24 13:57:14;;;;;;;4.93;3.08;;;;;;;;;;10500183;28;20124;-89
2023/08/24 14:02:17;;;;;;;4.22;2.70;;;;;;;;;;10496796;28;20028;-91
2023/08/24 14:07:20;;;;;;;3.78;2.42;;;;;;;;;;10491849;28;20121;-88
2023/08/24 14:12:22;;;;;;;7.13;3.22;;;;;;;;;;10491965;28;20185;-88
2023/08/24 14:17:23;;;;;;;5.05;2.90;;;;;;;;;;10490738;28;20420;-91
2023/08/24 14:22:26;;;;;;;5.47;2.90;;;;;;;;;;10497459;28;20122;-89
2023/08/24 14:27:27;;;;;;;6.28;3.55;;;;;;;;;;10501875;28;20079;-90
2023/08/24 14:32:28;;;;;;;4.95;3.28;;;;;;;;;;10479215;28;20040;-86
2023/08/24 14:37:29;;;;;;;5.13;3.28;;;;;;;;;;10507146;28;20432;-89
2023/08/24 14:42:31;;;;;;;4.75;3.78;;;;;;;;;;10494769;28;20042;-91
2023/08/24 14:47:33;;;;;;;5.03;3.20;;;;;;;;;;10509222;28;20107;-90
2023/08/24 14:52:35;;;;;;;7.38;4.72;;;;;;;;;;10505744;28;20075;-91
2023/08/24 14:57:36;;;;;;;10.93;4.60;;;;;;;;;;10489113;28;20020;-90
2023/08/24 15:02:37;;;;;;;5.63;4.20;;;;;;;;;;10488233;28;20016;-88
2023/08/24 15:07:38;;;;;;;10.43;3.95;;;;;;;;;;10514152;28;20377;-91
2023/08/24 15:12:39;;;;;;;6.57;3.72;;;;;;;;;;10510914;28;20102;-88
2023/08/24 15:17:49;;;;;;;7.32;3.17;;;;;;;;;;10512698;28;20034;-89
2023/08/24 15:22:50;;;;;;;5.25;3.50;;;;;;;;;;10498157;28;20020;-88
2023/08/24 15:27:51;;;;;;;6.15;3.50;;;;;;;;;;10492099;28;20127;-89
2023/08/24 15:32:53;;;;;;;7.55;3.95;;;;;;;;;;10497530;28;20036;-90
2023/08/24 15:38:04;;;;;;;25.38;5.90;;;;;;;;;;10506734;28;20391;-88
2023/08/24 15:43:06;;;;;;;10.82;3.85;;;;;;;;;;10497377;28;20039;-89
2023/08/24 15:48:32;;;;;;;8.52;3.47;;;;;;;;;;10485350;28;20035;-91
2023/08/24 15:53:33;;;;;;;8.45;3.33;;;;;;;;;;10495363;28;20353;-90
2023/08/24 15:58:38;;;;;;;19.85;4.60;;;;;;;;;;10506780;28;20039;-92
2023/08/24 16:03:40;;;;;;;20.23;4.10;;;;;;;;;;10499341;28;20035;-88
2023/08/24 16:09:09;;;;;;;16.42;4.00;;;;;;;;;;10503114;28;20047;-87
2023/08/24 16:14:11;;;;;;;9.35;4.07;;;;;;;;;;10508395;28;20115;-89
2023/08/24 16:19:14;;;;;;;12.40;3.78;;;;;;;;;;10497630;28;20063;-88
2023/08/24 16:24:16;;;;;;;7.45;2.83;;;;;;;;;;10494674;28;20036;-87
2023/08/24 16:29:17;;;;;;;14.57;4.93;;;;;;;;;;10314409;28;20115;-92
2023/08/24 16:34:36;;;;;;;7.43;3.97;;;;;;;;;;10296234;28;20074;-90
2023/08/24 16:39:37;;;;;;;7.78;3.58;;;;;;;;;;10303010;28;20045;-89
2023/08/24 16:44:39;;;;;;;7.38;4.40;;;;;;;;;;10307636;28;20038;-88
2023/08/24 16:49:40;;;;;;;9.18;5.53;;;;;;;;;;10293700;28;20091;-89
2023/08/24 16:54:41;;;;;;;10.68;5.93;;;;;;;;;;10312281;28;20124;-90
2023/08/24 16:59:42;;;;;;;11.15;6.47;;;;;;;;;;10294200;28;20038;-87
2023/08/24 17:04:43;;;;;;;12.80;8.27;;;;;;;;;;10291815;28;20034;-88
2023/08/24 17:09:44;;;;;;;13.57;8.10;;;;;;;;;;10310495;28;20893;-87
2023/08/24 17:14:45;;;;;;;6.15;3.83;;;;;;;;;;10293584;28;20044;-91
2023/08/24 17:19:46;;;;;;;6.10;3.80;;;;;;;;;;10288858;28;20146;-88
2023/08/24 17:24:47;;;;;;;7.30;3.60;;;;;;;;;;10303330;28;20052;-88
2023/08/24 17:29:49;;;;;;;6.75;3.50;;;;;;;;;;10322159;28;20058;-88
2023/08/24 17:34:50;;;;;;;4.57;3.45;;;;;;;;;;10323487;28;20027;-88
2023/08/24 17:39:51;;;;;;;5.45;3.38;;;;;;;;;;10309267;28;20058;-88
2023/08/24 17:44:53;;;;;;;6.28;3.60;;;;;;;;;;10306278;28;20030;-90
2023/08/24 17:49:55;;;;;;;4.75;3.40;;;;;;;;;;10305925;23;20068;-90
2023/08/24 17:54:56;;;;;;;5.53;3.17;;;;;;;;;;10249688;28;20040;-86
2023/08/24 17:59:57;;;;;;;8.07;3.72;;;;;;;;;;10198407;28;20035;-89
2023/08/24 18:04:59;;;;;;;6.20;3.63;;;;;;;;;;10187482;28;20035;-91
2023/08/24 18:10:00;;;;;;;6.15;3.88;;;;;;;;;;10201641;28;20507;-89
2023/08/24 18:15:01;;;;;;;5.18;3.50;;;;;;;;;;10182864;28;20454;-87
2023/08/24 18:20:03;;;;;;;4.80;3.58;;;;;;;;;;10175013;28;20085;-87
2023/08/24 18:25:04;;;;;;;6.40;3.95;;;;;;;;;;10199087;23;20053;-88
2023/08/24 18:30:06;;;;;;;5.07;3.70;;;;;;;;;;10164652;28;20048;-88
2023/08/24 18:35:08;;;;;;;4.55;3.97;;;;;;;;;;10150936;28;20051;-90
2023/08/24 18:40:09;;;;;;;4.13;3.72;;;;;;;;;;10184192;28;20107;-86
2023/08/24 18:45:10;;;;;;;8.20;4.53;;;;;;;;;;10163843;28;20066;-88
2023/08/24 18:50:19;;;;;;;9.23;5.68;;;;;;;;;;10170561;28;20929;-88
2023/08/24 18:55:21;;;;;;;12.95;8.55;;;;;;;;;;10168451;28;20024;-88
2023/08/24 19:00:22;;;;;;;15.27;9.50;;;;;;;;;;10173462;28;20036;-88
2023/08/24 19:05:26;;;;;;;15.82;9.52;;;;;;;;;;10159637;28;20040;-89
2023/08/24 19:10:30;;;;;;;14.82;9.20;;;;;;;;;;10144891;28;20040;-87
2023/08/24 19:15:31;;;;;;;15.32;8.35;;;;;;;;;;10154099;28;20032;-87
2023/08/24 19:20:33;;;;;;;14.18;8.48;;;;;;;;;;10135268;28;20024;-87
2023/08/24 19:25:34;;;;;;;13.18;8.77;;;;;;;;;;10152469;28;20144;-91
2023/08/24 19:30:38;;;;;;;14.15;8.75;;;;;;;;;;10156483;28;20542;-89
2023/08/24 19:35:39;;;;;;;21.33;9.30;;;;;;;;;;10156106;28;20032;-88
2023/08/24 19:40:41;;;;;;;15.77;8.73;;;;;;;;;;10156352;28;20043;-87
2023/08/24 19:45:44;;;;;;;13.57;7.85;;;;;;;;;;10156374;28;20040;-87
2023/08/24 19:50:46;;;;;;;12.45;7.93;;;;;;;;;;10156676;28;20079;-88
2023/08/24 19:55:47;;;;;;;14.35;8.07;;;;;;;;;;10155860;28;20040;-87
2023/08/24 20:00:53;;;;;;;20.85;10.52;;;;;;;;;;10155570;28;20040;-87
2023/08/24 20:05:59;;;;;;;19.00;11.38;;;;;;;;;;10156589;28;20135;-88
2023/08/24 20:11:00;;;;;;;18.90;11.35;;;;;;;;;;10151955;28;20036;-88
2023/08/24 20:16:06;;;;;;;22.15;12.18;;;;;;;;;;10191057;28;20232;-88
2023/08/24 20:21:08;;;;;;;16.80;11.07;;;;;;;;;;10181481;28;20042;-88
2023/08/24 20:26:13;;;;;;;20.38;10.15;;;;;;;;;;10217846;28;20054;-90
2023/08/24 20:31:14;;;;;;;14.27;9.30;;;;;;;;;;10338717;28;20101;-90
2023/08/24 20:36:15;;;;;;;14.10;9.05;;;;;;;;;;10324908;28;20026;-90
2023/08/24 20:41:16;;;;;;;11.82;8.35;;;;;;;;;;10343968;28;20025;-89
2023/08/24 20:46:17;;;;;;;16.25;9.40;;;;;;;;;;10345054;28;20025;-90
2023/08/24 20:51:18;;;;;;;15.93;9.77;;;;;;;;;;10344937;28;20050;-90
2023/08/24 20:56:19;;;;;;;14.57;9.10;;;;;;;;;;10344019;28;20072;-91
2023/08/24 21:01:20;;;;;;;14.77;9.05;;;;;;;;;;10344208;28;20389;-89
2023/08/24 21:06:21;;;;;;;14.57;9.70;;;;;;;;;;10344734;28;20120;-89
2023/08/24 21:11:22;;;;;;;13.82;10.35;;;;;;;;;;10330724;28;20546;-89
2023/08/24 21:16:23;;;;;;;13.73;9.63;;;;;;;;;;10343944;28;20087;-89
2023/08/24 21:21:24;;;;;;;16.17;11.88;;;;;;;;;;10343264;28;20022;-88
2023/08/24 21:26:26;;;;;;;16.42;10.77;;;;;;;;;;10271313;28;20056;-88
2023/08/24 21:31:27;;;;;;;14.75;10.55;;;;;;;;;;10154580;28;20059;-90
2023/08/24 21:36:28;;;;;;;15.52;11.00;;;;;;;;;;10154723;28;20496;-91
2023/08/24 21:41:29;;;;;;;16.70;10.50;;;;;;;;;;10154680;28;20495;-86
2023/08/24 21:46:31;;;;;;;16.45;10.50;;;;;;;;;;10154133;28;20058;-88
2023/08/24 21:51:34;;;;;;;19.00;10.98;;;;;;;;;;10161161;28;20052;-87
2023/08/24 21:56:35;;;;;;;15.27;10.57;;;;;;;;;;10162820;28;20038;-89
2023/08/24 22:01:37;;;;;;;14.38;9.75;;;;;;;;;;10160949;28;20048;-88
2023/08/24 22:06:38;;;;;;;14.73;10.60;;;;;;;;;;10160543;29;20040;-90
2023/08/24 22:11:39;;;;;;;15.50;10.90;;;;;;;;;;10160266;28;20048;-89
2023/08/24 22:16:40;;;;;;;15.50;10.80;;;;;;;;;;10162036;29;20047;-88
2023/08/24 22:21:41;;;;;;;17.52;10.25;;;;;;;;;;10159973;28;20047;-89
2023/08/24 22:26:42;;;;;;;17.45;11.35;;;;;;;;;;10159960;28;20060;-88
2023/08/24 22:31:43;;;;;;;19.88;11.23;;;;;;;;;;10160179;28;20059;-87
2023/08/24 22:36:44;;;;;;;16.10;10.90;;;;;;;;;;10161171;29;20040;-90
2023/08/24 22:41:45;;;;;;;20.13;11.60;;;;;;;;;;10160310;28;20039;-88
2023/08/24 22:46:46;;;;;;;18.30;11.63;;;;;;;;;;10159119;28;20043;-90
2023/08/24 22:51:47;;;;;;;17.15;11.57;;;;;;;;;;10159338;28;20122;-89
2023/08/24 22:56:49;;;;;;;19.55;12.52;;;;;;;;;;10160353;28;20071;-89
2023/08/24 23:01:50;;;;;;;24.30;13.50;;;;;;;;;;10158399;28;20127;-90
2023/08/24 23:06:57;;;;;;;21.08;12.35;;;;;;;;;;10160812;28;20488;-89
2023/08/24 23:12:01;;;;;;;22.35;13.35;;;;;;;;;;10158221;28;20759;-87
2023/08/24 23:17:03;;;;;;;25.85;15.40;;;;;;;;;;10159647;28;20484;-87
2023/08/24 23:22:05;;;;;;;24.95;15.40;;;;;;;;;;10158291;28;20770;-87
2023/08/24 23:27:06;;;;;;;28.33;15.60;;;;;;;;;;10157907;28;20060;-89
2023/08/24 23:32:07;;;;;;;26.02;14.65;;;;;;;;;;10155497;28;20048;-89
2023/08/24 23:37:08;;;;;;;28.40;14.93;;;;;;;;;;10157605;28;20032;-87
2023/08/24 23:42:09;;;;;;;30.02;15.52;;;;;;;;;;10157985;28;20094;-88
2023/08/24 23:47:10;;;;;;;30.65;14.77;;;;;;;;;;10157638;28;20074;-89
2023/08/24 23:52:12;;;;;;;29.67;15.90;;;;;;;;;;10157272;28;20083;-88
2023/08/24 23:57:13;;;;;;;29.88;14.82;;;;;;;;;;10155394;28;20048;-90
